sensor_id;sensor_type;location;lat;lon;timestamp;pressure;altitude;pressure_sealevel;temperature;humidity
51468;BME280;37545;45.302;-122.946;2023-04-01T00:01:12;100904.81;;;8.65;100.00
51468;BME280;37545;45.302;-122.946;2023-04-01T00:03:42;100902.03;;;8.59;100.00
51468;BME280;37545;45.302;-122.946;2023-04-01T00:06:13;100889.16;;;8.60;100.00
51468;BME280;37545;45.302;-122.946;2023-04-01T00:08:42;100889.16;;;8.60;100.00
51468;BME280;37545;45.302;-122.946;2023-04-01T00:11:13;100890.00;;;8.59;100.00
51468;BME280;37545;45.302;-122.946;2023-04-01T00:13:42;100874.38;;;8.56;100.00
51468;BME280;37545;45.302;-122.946;2023-04-01T00:16:11;100870.75;;;8.51;100.00
51468;BME280;37545;45.302;-122.946;2023-04-01T00:18:40;100857.94;;;8.53;100.00
51468;BME280;37545;45.302;-122.946;2023-04-01T00:21:08;100851.91;;;8.52;100.00
51468;BME280;37545;45.302;-122.946;2023-04-01T00:23:37;100854.59;;;8.55;100.00
51468;BME280;37545;45.302;-122.946;2023-04-01T00:26:06;100861.63;;;8.59;100.00
51468;BME280;37545;45.302;-122.946;2023-04-01T00:28:36;100856.50;;;8.61;100.00
51468;BME280;37545;45.302;-122.946;2023-04-01T00:31:06;100847.91;;;8.60;100.00
51468;BME280;37545;45.302;-122.946;2023-04-01T00:33:35;100847.69;;;8.54;100.00
51468;BME280;37545;45.302;-122.946;2023-04-01T00:36:08;100845.22;;;8.57;100.00
51468;BME280;37545;45.302;-122.946;2023-04-01T00:38:37;100833.13;;;8.56;100.00
51468;BME280;37545;45.302;-122.946;2023-04-01T00:41:07;100832.84;;;8.49;100.00
51468;BME280;37545;45.302;-122.946;2023-04-01T00:43:38;100831.13;;;8.49;100.00
51468;BME280;37545;45.302;-122.946;2023-04-01T00:46:07;100831.19;;;8.51;100.00
51468;BME280;37545;45.302;-122.946;2023-04-01T00:48:38;100827.75;;;8.50;100.00
51468;BME280;37545;45.302;-122.946;2023-04-01T00:51:10;100820.06;;;8.52;100.00
51468;BME280;37545;45.302;-122.946;2023-04-01T00:53:42;100818.31;;;8.51;100.00
51468;BME280;37545;45.302;-122.946;2023-04-01T00:56:13;100811.63;;;8.35;100.00
51468;BME280;37545;45.302;-122.946;2023-04-01T00:58:48;100816.78;;;8.35;100.00
51468;BME280;37545;45.302;-122.946;2023-04-01T01:01:20;100814.13;;;8.33;100.00
51468;BME280;37545;45.302;-122.946;2023-04-01T01:03:50;100808.13;;;8.33;100.00
51468;BME280;37545;45.302;-122.946;2023-04-01T01:06:29;100798.66;;;8.33;100.00
51468;BME280;37545;45.302;-122.946;2023-04-01T01:09:16;100791.94;;;8.37;100.00
51468;BME280;37545;45.302;-122.946;2023-04-01T01:11:56;100784.28;;;8.38;100.00
51468;BME280;37545;45.302;-122.946;2023-04-01T01:14:40;100780.69;;;8.35;100.00
51468;BME280;37545;45.302;-122.946;2023-04-01T01:17:21;100774.69;;;8.36;100.00
51468;BME280;37545;45.302;-122.946;2023-04-01T01:20:24;100764.34;;;8.34;100.00
51468;BME280;37545;45.302;-122.946;2023-04-01T01:23:36;100769.34;;;8.30;100.00
51468;BME280;37545;45.302;-122.946;2023-04-01T01:26:31;100771.06;;;8.31;100.00
51468;BME280;37545;45.302;-122.946;2023-04-01T01:29:07;100769.00;;;8.22;100.00
51468;BME280;37545;45.302;-122.946;2023-04-01T01:31:47;100762.88;;;8.18;100.00
51468;BME280;37545;45.302;-122.946;2023-04-01T01:34:24;100754.28;;;8.18;100.00
51468;BME280;37545;45.302;-122.946;2023-04-01T01:37:03;100741.44;;;8.19;100.00
51468;BME280;37545;45.302;-122.946;2023-04-01T01:39:34;100751.03;;;8.24;100.00
51468;BME280;37545;45.302;-122.946;2023-04-01T01:42:05;100741.59;;;8.24;100.00
51468;BME280;37545;45.302;-122.946;2023-04-01T01:44:45;100733.94;;;8.26;100.00
51468;BME280;37545;45.302;-122.946;2023-04-01T01:47:17;100732.19;;;8.25;100.00
51468;BME280;37545;45.302;-122.946;2023-04-01T01:49:48;100727.03;;;8.25;100.00
51468;BME280;37545;45.302;-122.946;2023-04-01T01:52:20;100730.41;;;8.24;100.00
51468;BME280;37545;45.302;-122.946;2023-04-01T01:54:50;100737.09;;;8.18;100.00
51468;BME280;37545;45.302;-122.946;2023-04-01T01:57:22;100720.00;;;8.21;100.00
51468;BME280;37545;45.302;-122.946;2023-04-01T01:59:54;100718.19;;;8.18;100.00
51468;BME280;37545;45.302;-122.946;2023-04-01T02:02:25;100705.91;;;8.11;100.00
51468;BME280;37545;45.302;-122.946;2023-04-01T02:04:58;100712.53;;;8.06;100.00
51468;BME280;37545;45.302;-122.946;2023-04-01T02:07:31;100702.19;;;8.04;100.00
51468;BME280;37545;45.302;-122.946;2023-04-01T02:10:01;100701.28;;;8.04;100.00
51468;BME280;37545;45.302;-122.946;2023-04-01T02:12:31;100695.19;;;8.02;100.00
51468;BME280;37545;45.302;-122.946;2023-04-01T02:15:03;100702.72;;;7.95;100.00
51468;BME280;37545;45.302;-122.946;2023-04-01T02:17:34;100698.13;;;7.88;100.00
51468;BME280;37545;45.302;-122.946;2023-04-01T02:20:07;100704.75;;;7.82;100.00
51468;BME280;37545;45.302;-122.946;2023-04-01T02:22:40;100689.16;;;7.79;100.00
51468;BME280;37545;45.302;-122.946;2023-04-01T02:25:12;100693.50;;;7.80;100.00
51468;BME280;37545;45.302;-122.946;2023-04-01T02:27:43;100695.06;;;7.76;100.00
51468;BME280;37545;45.302;-122.946;2023-04-01T02:30:13;100692.56;;;7.78;100.00
51468;BME280;37545;45.302;-122.946;2023-04-01T02:32:43;100680.31;;;7.72;100.00
51468;BME280;37545;45.302;-122.946;2023-04-01T02:35:14;100687.16;;;7.71;100.00
51468;BME280;37545;45.302;-122.946;2023-04-01T02:37:46;100683.59;;;7.68;100.00
51468;BME280;37545;45.302;-122.946;2023-04-01T02:40:17;100664.81;;;7.70;100.00
51468;BME280;37545;45.302;-122.946;2023-04-01T02:42:46;100667.38;;;7.70;100.00
51468;BME280;37545;45.302;-122.946;2023-04-01T02:45:15;100678.72;;;7.75;100.00
51468;BME280;37545;45.302;-122.946;2023-04-01T02:47:43;100672.63;;;7.73;100.00
51468;BME280;37545;45.302;-122.946;2023-04-01T02:50:12;100662.31;;;7.72;100.00
51468;BME280;37545;45.302;-122.946;2023-04-01T02:52:41;100666.44;;;7.68;100.00
51468;BME280;37545;45.302;-122.946;2023-04-01T02:55:11;100672.97;;;7.60;100.00
51468;BME280;37545;45.302;-122.946;2023-04-01T02:57:40;100670.47;;;7.62;100.00
51468;BME280;37545;45.302;-122.946;2023-04-01T03:00:10;100650.72;;;7.62;100.00
51468;BME280;37545;45.302;-122.946;2023-04-01T03:02:38;100649.94;;;7.63;100.00
51468;BME280;37545;45.302;-122.946;2023-04-01T03:05:08;100647.97;;;7.58;100.00
51468;BME280;37545;45.302;-122.946;2023-04-01T03:07:36;100655.66;;;7.56;100.00
51468;BME280;37545;45.302;-122.946;2023-04-01T03:10:06;100646.41;;;7.61;100.00
51468;BME280;37545;45.302;-122.946;2023-04-01T03:12:36;100640.31;;;7.59;100.00
51468;BME280;37545;45.302;-122.946;2023-04-01T03:15:05;100648.66;;;7.53;100.00
51468;BME280;37545;45.302;-122.946;2023-04-01T03:17:34;100642.66;;;7.53;100.00
51468;BME280;37545;45.302;-122.946;2023-04-01T03:20:04;100650.25;;;7.50;100.00
51468;BME280;37545;45.302;-122.946;2023-04-01T03:22:32;100637.50;;;7.53;100.00
51468;BME280;37545;45.302;-122.946;2023-04-01T03:25:01;100636.81;;;7.57;100.00
51468;BME280;37545;45.302;-122.946;2023-04-01T03:27:30;100626.13;;;7.48;100.00
51468;BME280;37545;45.302;-122.946;2023-04-01T03:30:01;100628.97;;;7.54;100.00
51468;BME280;37545;45.302;-122.946;2023-04-01T03:32:29;100640.81;;;7.50;100.00
51468;BME280;37545;45.302;-122.946;2023-04-01T03:34:58;100625.00;;;7.41;100.00
51468;BME280;37545;45.302;-122.946;2023-04-01T03:37:27;100645.34;;;7.56;100.00
51468;BME280;37545;45.302;-122.946;2023-04-01T03:39:56;100631.41;;;7.51;100.00
51468;BME280;37545;45.302;-122.946;2023-04-01T03:42:25;100638.91;;;7.45;100.00
51468;BME280;37545;45.302;-122.946;2023-04-01T03:44:54;100641.47;;;7.45;100.00
51468;BME280;37545;45.302;-122.946;2023-04-01T03:47:24;100646.44;;;7.40;100.00
51468;BME280;37545;45.302;-122.946;2023-04-01T03:49:53;100635.31;;;7.41;100.00
51468;BME280;37545;45.302;-122.946;2023-04-01T03:52:22;100634.31;;;7.38;100.00
51468;BME280;37545;45.302;-122.946;2023-04-01T03:54:50;100635.06;;;7.35;100.00
51468;BME280;37545;45.302;-122.946;2023-04-01T03:57:19;100641.22;;;7.39;100.00
51468;BME280;37545;45.302;-122.946;2023-04-01T03:59:47;100631.88;;;7.41;100.00
51468;BME280;37545;45.302;-122.946;2023-04-01T04:02:16;100635.38;;;7.43;100.00
51468;BME280;37545;45.302;-122.946;2023-04-01T04:04:47;100634.56;;;7.44;100.00
51468;BME280;37545;45.302;-122.946;2023-04-01T04:07:16;100635.59;;;7.49;100.00
51468;BME280;37545;45.302;-122.946;2023-04-01T04:09:44;100632.03;;;7.45;100.00
51468;BME280;37545;45.302;-122.946;2023-04-01T04:12:14;100634.50;;;7.42;100.00
51468;BME280;37545;45.302;-122.946;2023-04-01T04:14:42;100618.16;;;7.42;100.00
51468;BME280;37545;45.302;-122.946;2023-04-01T04:17:11;100631.78;;;7.39;100.00
51468;BME280;37545;45.302;-122.946;2023-04-01T04:19:42;100629.28;;;7.41;100.00
51468;BME280;37545;45.302;-122.946;2023-04-01T04:22:12;100637.97;;;7.43;100.00
51468;BME280;37545;45.302;-122.946;2023-04-01T04:24:41;100638.81;;;7.43;100.00
51468;BME280;37545;45.302;-122.946;2023-04-01T04:27:10;100625.00;;;7.41;100.00
51468;BME280;37545;45.302;-122.946;2023-04-01T04:29:39;100618.31;;;7.45;100.00
51468;BME280;37545;45.302;-122.946;2023-04-01T04:32:07;100621.69;;;7.44;100.00
51468;BME280;37545;45.302;-122.946;2023-04-01T04:34:36;100608.94;;;7.47;100.00
51468;BME280;37545;45.302;-122.946;2023-04-01T04:37:05;100624.50;;;7.50;100.00
51468;BME280;37545;45.302;-122.946;2023-04-01T04:39:35;100626.03;;;7.45;100.00
51468;BME280;37545;45.302;-122.946;2023-04-01T04:42:04;100626.06;;;7.46;100.00
51468;BME280;37545;45.302;-122.946;2023-04-01T04:44:33;100618.41;;;7.48;100.00
51468;BME280;37545;45.302;-122.946;2023-04-01T04:47:02;100621.94;;;7.50;100.00
51468;BME280;37545;45.302;-122.946;2023-04-01T04:49:31;100610.69;;;7.48;100.00
51468;BME280;37545;45.302;-122.946;2023-04-01T04:52:00;100612.31;;;7.46;100.00
51468;BME280;37545;45.302;-122.946;2023-04-01T04:54:29;100604.72;;;7.49;100.00
51468;BME280;37545;45.302;-122.946;2023-04-01T04:59:34;100603.66;;;7.44;100.00
51468;BME280;37545;45.302;-122.946;2023-04-01T05:02:03;100596.88;;;7.46;100.00
51468;BME280;37545;45.302;-122.946;2023-04-01T05:04:35;100595.06;;;7.43;100.00
51468;BME280;37545;45.302;-122.946;2023-04-01T05:07:04;100590.75;;;7.42;100.00
51468;BME280;37545;45.302;-122.946;2023-04-01T05:09:32;100606.06;;;7.39;100.00
51468;BME280;37545;45.302;-122.946;2023-04-01T05:12:01;100584.59;;;7.39;100.00
51468;BME280;37545;45.302;-122.946;2023-04-01T05:14:29;100584.78;;;7.43;100.00
51468;BME280;37545;45.302;-122.946;2023-04-01T05:17:02;100581.31;;;7.43;100.00
51468;BME280;37545;45.302;-122.946;2023-04-01T05:19:31;100574.53;;;7.45;100.00
51468;BME280;37545;45.302;-122.946;2023-04-01T05:21:59;100579.81;;;7.48;100.00
51468;BME280;37545;45.302;-122.946;2023-04-01T05:24:28;100583.25;;;7.48;100.00
51468;BME280;37545;45.302;-122.946;2023-04-01T05:26:56;100585.06;;;7.51;100.00
51468;BME280;37545;45.302;-122.946;2023-04-01T05:29:25;100600.50;;;7.51;100.00
51468;BME280;37545;45.302;-122.946;2023-04-01T05:31:54;100584.13;;;7.49;100.00
51468;BME280;37545;45.302;-122.946;2023-04-01T05:34:24;100581.44;;;7.46;100.00
51468;BME280;37545;45.302;-122.946;2023-04-01T05:36:52;100602.38;;;7.55;100.00
51468;BME280;37545;45.302;-122.946;2023-04-01T05:39:21;100610.19;;;7.57;100.00
51468;BME280;37545;45.302;-122.946;2023-04-01T05:41:50;100611.81;;;7.54;100.00
51468;BME280;37545;45.302;-122.946;2023-04-01T05:44:18;100620.53;;;7.58;100.00
51468;BME280;37545;45.302;-122.946;2023-04-01T05:46:47;100614.66;;;7.61;100.00
51468;BME280;37545;45.302;-122.946;2023-04-01T05:49:16;100624.19;;;7.63;100.00
51468;BME280;37545;45.302;-122.946;2023-04-01T05:51:46;100631.22;;;7.67;100.00
51468;BME280;37545;45.302;-122.946;2023-04-01T05:54:15;100623.50;;;7.67;100.00
51468;BME280;37545;45.302;-122.946;2023-04-01T05:56:43;100624.53;;;7.72;100.00
51468;BME280;37545;45.302;-122.946;2023-04-01T05:59:12;100631.41;;;7.72;100.00
51468;BME280;37545;45.302;-122.946;2023-04-01T06:01:41;100628.81;;;7.72;100.00
51468;BME280;37545;45.302;-122.946;2023-04-01T06:04:13;100635.88;;;7.78;100.00
51468;BME280;37545;45.302;-122.946;2023-04-01T06:06:45;100632.47;;;7.79;100.00
51468;BME280;37545;45.302;-122.946;2023-04-01T06:09:15;100629.03;;;7.78;100.00
51468;BME280;37545;45.302;-122.946;2023-04-01T06:11:55;100635.06;;;7.79;100.00
51468;BME280;37545;45.302;-122.946;2023-04-01T06:14:35;100646.09;;;7.74;100.00
51468;BME280;37545;45.302;-122.946;2023-04-01T06:17:18;100635.19;;;7.82;100.00
51468;BME280;37545;45.302;-122.946;2023-04-01T06:19:54;100640.28;;;7.80;100.00
51468;BME280;37545;45.302;-122.946;2023-04-01T06:22:46;100638.81;;;7.87;100.00
51468;BME280;37545;45.302;-122.946;2023-04-01T06:25:29;100645.84;;;7.91;100.00
51468;BME280;37545;45.302;-122.946;2023-04-01T06:28:29;100641.75;;;7.96;100.00
51468;BME280;37545;45.302;-122.946;2023-04-01T06:31:03;100662.59;;;8.02;100.00
51468;BME280;37545;45.302;-122.946;2023-04-01T06:33:50;100654.16;;;8.06;100.00
51468;BME280;37545;45.302;-122.946;2023-04-01T06:36:35;100671.47;;;8.10;100.00
51468;BME280;37545;45.302;-122.946;2023-04-01T06:39:29;100665.63;;;8.14;100.00
51468;BME280;37545;45.302;-122.946;2023-04-01T06:42:29;100676.00;;;8.16;100.00
51468;BME280;37545;45.302;-122.946;2023-04-01T06:45:12;100667.44;;;8.17;100.00
51468;BME280;37545;45.302;-122.946;2023-04-01T06:47:54;100673.47;;;8.17;100.00
51468;BME280;37545;45.302;-122.946;2023-04-01T06:50:30;100682.91;;;8.17;100.00
51468;BME280;37545;45.302;-122.946;2023-04-01T06:53:09;100689.88;;;8.19;100.00
51468;BME280;37545;45.302;-122.946;2023-04-01T06:55:42;100689.06;;;8.21;100.00
51468;BME280;37545;45.302;-122.946;2023-04-01T06:58:19;100693.47;;;8.23;100.00
51468;BME280;37545;45.302;-122.946;2023-04-01T07:00:50;100690.94;;;8.25;100.00
51468;BME280;37545;45.302;-122.946;2023-04-01T07:03:23;100678.06;;;8.25;100.00
51468;BME280;37545;45.302;-122.946;2023-04-01T07:05:57;100696.03;;;8.23;100.00
51468;BME280;37545;45.302;-122.946;2023-04-01T07:08:29;100701.13;;;8.22;100.00
51468;BME280;37545;45.302;-122.946;2023-04-01T07:11:02;100695.09;;;8.21;100.00
51468;BME280;37545;45.302;-122.946;2023-04-01T07:13:34;100695.88;;;8.18;100.00
51468;BME280;37545;45.302;-122.946;2023-04-01T07:16:12;100696.63;;;8.16;100.00
51468;BME280;37545;45.302;-122.946;2023-04-01T07:18:45;100699.22;;;8.16;100.00
51468;BME280;37545;45.302;-122.946;2023-04-01T07:21:23;100685.31;;;8.12;100.00
51468;BME280;37545;45.302;-122.946;2023-04-01T07:23:56;100686.16;;;8.11;100.00
51468;BME280;37545;45.302;-122.946;2023-04-01T07:26:28;100684.44;;;8.12;100.00
51468;BME280;37545;45.302;-122.946;2023-04-01T07:28:57;100705.13;;;8.13;100.00
51468;BME280;37545;45.302;-122.946;2023-04-01T07:34:27;100693.75;;;8.08;100.00
51468;BME280;37545;45.302;-122.946;2023-04-01T07:37:02;100697.94;;;8.06;100.00
51468;BME280;37545;45.302;-122.946;2023-04-01T07:39:40;100707.34;;;8.04;100.00
51468;BME280;37545;45.302;-122.946;2023-04-01T07:42:20;100684.84;;;8.00;100.00
51468;BME280;37545;45.302;-122.946;2023-04-01T07:44:58;100683.91;;;7.98;100.00
51468;BME280;37545;45.302;-122.946;2023-04-01T07:47:39;100703.69;;;7.99;100.00
51468;BME280;37545;45.302;-122.946;2023-04-01T07:50:17;100717.31;;;7.95;100.00
51468;BME280;37545;45.302;-122.946;2023-04-01T07:52:53;100733.56;;;7.94;100.00
51468;BME280;37545;45.302;-122.946;2023-04-01T07:55:34;100738.47;;;7.88;100.00
51468;BME280;37545;45.302;-122.946;2023-04-01T07:58:11;100728.88;;;7.84;100.00
51468;BME280;37545;45.302;-122.946;2023-04-01T08:00:49;100722.78;;;7.82;100.00
51468;BME280;37545;45.302;-122.946;2023-04-01T08:03:28;100730.50;;;7.82;100.00
51468;BME280;37545;45.302;-122.946;2023-04-01T08:06:02;100724.16;;;7.73;100.00
51468;BME280;37545;45.302;-122.946;2023-04-01T08:08:44;100725.34;;;7.82;100.00
51468;BME280;37545;45.302;-122.946;2023-04-01T08:11:26;100728.72;;;7.81;100.00
51468;BME280;37545;45.302;-122.946;2023-04-01T08:14:07;100723.47;;;7.78;100.00
51468;BME280;37545;45.302;-122.946;2023-04-01T08:16:42;100726.88;;;7.76;100.00
51468;BME280;37545;45.302;-122.946;2023-04-01T08:19:22;100724.34;;;7.78;100.00
51468;BME280;37545;45.302;-122.946;2023-04-01T08:22:00;100729.38;;;7.75;100.00
51468;BME280;37545;45.302;-122.946;2023-04-01T08:24:35;100738.66;;;7.71;100.00
51468;BME280;37545;45.302;-122.946;2023-04-01T08:27:11;100736.03;;;7.70;100.00
51468;BME280;37545;45.302;-122.946;2023-04-01T08:29:48;100747.09;;;7.67;100.00
51468;BME280;37545;45.302;-122.946;2023-04-01T08:32:23;100755.63;;;7.66;100.00
51468;BME280;37545;45.302;-122.946;2023-04-01T08:35:00;100741.88;;;7.66;100.00
51468;BME280;37545;45.302;-122.946;2023-04-01T08:37:38;100744.47;;;7.66;100.00
51468;BME280;37545;45.302;-122.946;2023-04-01T08:40:15;100732.34;;;7.63;100.00
51468;BME280;37545;45.302;-122.946;2023-04-01T08:42:58;100734.91;;;7.63;100.00
51468;BME280;37545;45.302;-122.946;2023-04-01T08:45:46;100744.38;;;7.64;100.00
51468;BME280;37545;45.302;-122.946;2023-04-01T08:48:57;100743.44;;;7.62;100.00
51468;BME280;37545;45.302;-122.946;2023-04-01T08:58:11;100734.66;;;7.57;100.00
51468;BME280;37545;45.302;-122.946;2023-04-01T09:00:49;100750.09;;;7.57;100.00
51468;BME280;37545;45.302;-122.946;2023-04-01T09:03:44;100739.81;;;7.57;100.00
51468;BME280;37545;45.302;-122.946;2023-04-01T09:06:36;100741.50;;;7.57;100.00
51468;BME280;37545;45.302;-122.946;2023-04-01T09:09:32;100738.06;;;7.56;100.00
51468;BME280;37545;45.302;-122.946;2023-04-01T09:12:19;100746.66;;;7.57;100.00
51468;BME280;37545;45.302;-122.946;2023-04-01T09:15:06;100748.34;;;7.56;100.00
51468;BME280;37545;45.302;-122.946;2023-04-01T09:21:04;100756.88;;;7.55;100.00
51468;BME280;37545;45.302;-122.946;2023-04-01T09:23:46;100745.63;;;7.53;100.00
51468;BME280;37545;45.302;-122.946;2023-04-01T09:26:31;100748.09;;;7.50;100.00
51468;BME280;37545;45.302;-122.946;2023-04-01T09:29:10;100744.50;;;7.46;100.00
51468;BME280;37545;45.302;-122.946;2023-04-01T09:31:58;100749.44;;;7.42;100.00
51468;BME280;37545;45.302;-122.946;2023-04-01T09:34:49;100732.00;;;7.34;100.00
51468;BME280;37545;45.302;-122.946;2023-04-01T09:37:34;100732.81;;;7.33;100.00
51468;BME280;37545;45.302;-122.946;2023-04-01T09:40:21;100737.13;;;7.34;100.00
51468;BME280;37545;45.302;-122.946;2023-04-01T09:43:07;100737.81;;;7.30;100.00
51468;BME280;37545;45.302;-122.946;2023-04-01T09:45:48;100732.47;;;7.26;100.00
51468;BME280;37545;45.302;-122.946;2023-04-01T09:48:37;100745.31;;;7.24;100.00
51468;BME280;37545;45.302;-122.946;2023-04-01T09:51:19;100740.00;;;7.21;100.00
51468;BME280;37545;45.302;-122.946;2023-04-01T09:54:01;100750.28;;;7.21;100.00
51468;BME280;37545;45.302;-122.946;2023-04-01T09:57:09;100748.44;;;7.17;100.00
51468;BME280;37545;45.302;-122.946;2023-04-01T09:59:57;100753.69;;;7.20;100.00
51468;BME280;37545;45.302;-122.946;2023-04-01T10:02:58;100758.03;;;7.21;100.00
51468;BME280;37545;45.302;-122.946;2023-04-01T10:08:58;100751.91;;;7.19;100.00
51468;BME280;37545;45.302;-122.946;2023-04-01T10:11:53;100746.66;;;7.16;100.00
51468;BME280;37545;45.302;-122.946;2023-04-01T10:17:46;100739.56;;;7.10;100.00
51468;BME280;37545;45.302;-122.946;2023-04-01T10:20:44;100745.72;;;7.14;100.00
51468;BME280;37545;45.302;-122.946;2023-04-01T10:23:34;100731.50;;;7.03;100.00
51468;BME280;37545;45.302;-122.946;2023-04-01T10:26:58;100757.56;;;7.10;100.00
51468;BME280;37545;45.302;-122.946;2023-04-01T10:39:06;100749.16;;;7.14;100.00
51468;BME280;37545;45.302;-122.946;2023-04-01T10:45:09;100754.09;;;7.10;100.00
51468;BME280;37545;45.302;-122.946;2023-04-01T10:48:13;100753.44;;;7.14;100.00
51468;BME280;37545;45.302;-122.946;2023-04-01T10:51:04;100756.94;;;7.16;100.00
51468;BME280;37545;45.302;-122.946;2023-04-01T10:56:52;100773.41;;;7.20;100.00
51468;BME280;37545;45.302;-122.946;2023-04-01T11:09:22;100786.47;;;7.24;100.00
51468;BME280;37545;45.302;-122.946;2023-04-01T11:12:36;100778.56;;;7.20;100.00
51468;BME280;37545;45.302;-122.946;2023-04-01T11:18:51;100780.78;;;7.12;100.00
51468;BME280;37545;45.302;-122.946;2023-04-01T11:21:49;100772.84;;;7.07;100.00
51468;BME280;37545;45.302;-122.946;2023-04-01T11:24:37;100769.09;;;6.99;100.00
51468;BME280;37545;45.302;-122.946;2023-04-01T11:27:27;100772.22;;;6.92;100.00
51468;BME280;37545;45.302;-122.946;2023-04-01T11:30:13;100777.81;;;6.83;100.00
51468;BME280;37545;45.302;-122.946;2023-04-01T11:32:52;100781.06;;;6.79;100.00
51468;BME280;37545;45.302;-122.946;2023-04-01T11:41:25;100785.22;;;6.58;100.00
51468;BME280;37545;45.302;-122.946;2023-04-01T11:44:09;100783.19;;;6.50;100.00
51468;BME280;37545;45.302;-122.946;2023-04-01T11:46:46;100773.41;;;6.43;100.00
51468;BME280;37545;45.302;-122.946;2023-04-01T11:49:35;100773.16;;;6.37;100.00
51468;BME280;37545;45.302;-122.946;2023-04-01T11:52:19;100785.84;;;6.34;100.00
51468;BME280;37545;45.302;-122.946;2023-04-01T11:57:53;100788.56;;;6.19;100.00
51468;BME280;37545;45.302;-122.946;2023-04-01T12:00:37;100795.41;;;6.19;100.00
51468;BME280;37545;45.302;-122.946;2023-04-01T12:03:27;100796.84;;;6.14;100.00
51468;BME280;37545;45.302;-122.946;2023-04-01T12:06:08;100802.72;;;6.11;100.00
51468;BME280;37545;45.302;-122.946;2023-04-01T12:08:46;100805.25;;;6.10;100.00
51468;BME280;37545;45.302;-122.946;2023-04-01T12:11:26;100802.69;;;6.10;100.00
51468;BME280;37545;45.302;-122.946;2023-04-01T12:14:02;100803.47;;;6.08;100.00
51468;BME280;37545;45.302;-122.946;2023-04-01T12:16:50;100800.75;;;6.05;100.00
51468;BME280;37545;45.302;-122.946;2023-04-01T12:19:29;100801.72;;;6.07;100.00
51468;BME280;37545;45.302;-122.946;2023-04-01T12:22:17;100810.38;;;6.10;100.00
51468;BME280;37545;45.302;-122.946;2023-04-01T12:24:56;100811.34;;;6.12;100.00
51468;BME280;37545;45.302;-122.946;2023-04-01T12:33:43;100820.78;;;6.13;100.00
51468;BME280;37545;45.302;-122.946;2023-04-01T12:36:38;100817.34;;;6.12;100.00
51468;BME280;37545;45.302;-122.946;2023-04-01T12:39:29;100811.78;;;6.03;100.00
51468;BME280;37545;45.302;-122.946;2023-04-01T12:42:09;100816.81;;;6.01;100.00
51468;BME280;37545;45.302;-122.946;2023-04-01T12:44:51;100812.28;;;5.96;100.00
51468;BME280;37545;45.302;-122.946;2023-04-01T12:47:53;100826.38;;;5.87;100.00
51468;BME280;37545;45.302;-122.946;2023-04-01T12:50:43;100824.31;;;5.80;100.00
51468;BME280;37545;45.302;-122.946;2023-04-01T12:53:32;100832.44;;;5.72;100.00
51468;BME280;37545;45.302;-122.946;2023-04-01T12:56:12;100840.78;;;5.67;100.00
51468;BME280;37545;45.302;-122.946;2023-04-01T13:01:57;100848.47;;;5.67;100.00
51468;BME280;37545;45.302;-122.946;2023-04-01T13:04:56;100843.84;;;5.60;100.00
51468;BME280;37545;45.302;-122.946;2023-04-01T13:07:45;100854.13;;;5.60;100.00
51468;BME280;37545;45.302;-122.946;2023-04-01T13:10:30;100853.16;;;5.58;100.00
51468;BME280;37545;45.302;-122.946;2023-04-01T13:13:23;100852.19;;;5.56;100.00
51468;BME280;37545;45.302;-122.946;2023-04-01T13:16:00;100867.59;;;5.56;100.00
51468;BME280;37545;45.302;-122.946;2023-04-01T13:18:39;100858.94;;;5.54;100.00
51468;BME280;37545;45.302;-122.946;2023-04-01T13:21:15;100850.75;;;5.45;100.00
51468;BME280;37545;45.302;-122.946;2023-04-01T13:23:55;100869.91;;;5.52;100.00
51468;BME280;37545;45.302;-122.946;2023-04-01T13:26:32;100876.66;;;5.50;100.00
51468;BME280;37545;45.302;-122.946;2023-04-01T13:29:07;100875.78;;;5.49;100.00
51468;BME280;37545;45.302;-122.946;2023-04-01T13:31:50;100873.16;;;5.48;100.00
51468;BME280;37545;45.302;-122.946;2023-04-01T13:34:33;100874.09;;;5.50;100.00
51468;BME280;37545;45.302;-122.946;2023-04-01T13:37:24;100892.16;;;5.51;100.00
51468;BME280;37545;45.302;-122.946;2023-04-01T13:40:19;100889.91;;;5.57;100.00
51468;BME280;37545;45.302;-122.946;2023-04-01T13:42:55;100889.31;;;5.63;100.00
51468;BME280;37545;45.302;-122.946;2023-04-01T13:45:29;100890.38;;;5.66;100.00
51468;BME280;37545;45.302;-122.946;2023-04-01T13:48:49;100902.41;;;5.67;100.00
51468;BME280;37545;45.302;-122.946;2023-04-01T13:51:50;100912.84;;;5.71;100.00
51468;BME280;37545;45.302;-122.946;2023-04-01T13:57:20;100916.38;;;5.73;100.00
51468;BME280;37545;45.302;-122.946;2023-04-01T14:00:16;100927.56;;;5.75;100.00
51468;BME280;37545;45.302;-122.946;2023-04-01T14:02:56;100930.31;;;5.78;100.00
51468;BME280;37545;45.302;-122.946;2023-04-01T14:05:47;100932.81;;;5.76;100.00
51468;BME280;37545;45.302;-122.946;2023-04-01T14:08:29;100940.09;;;5.85;100.00
51468;BME280;37545;45.302;-122.946;2023-04-01T14:11:11;100941.06;;;5.87;100.00
51468;BME280;37545;45.302;-122.946;2023-04-01T14:13:52;100938.41;;;5.85;100.00
51468;BME280;37545;45.302;-122.946;2023-04-01T14:16:28;100946.22;;;5.87;100.00
51468;BME280;37545;45.302;-122.946;2023-04-01T14:19:08;100940.25;;;5.88;100.00
51468;BME280;37545;45.302;-122.946;2023-04-01T14:21:45;100937.44;;;5.83;100.00
51468;BME280;37545;45.302;-122.946;2023-04-01T14:27:41;100928.63;;;5.78;100.00